Terminal Aerodrome Forecast
Issued by NWS

Home | Current Version | Previous Version | Text Only | Print | Product List | Glossary On
Versions: 1 2 3 4 5 6 7 8 9 10 11 12 13 14 15 16 17 18 19 20 21 22 23
000
FTUS46 KSEW 232100 AAA
TAFBFI
TAF AMD
KBFI 232103Z 2321/2418 17013KT P6SM VCTS SCT040CB BKN060
      TEMPO 2321/2324 17013G20KT 5SM SHRA OVC030
     FM240000 19008KT P6SM SCT040 BKN060
      TEMPO 2400/2404 -SHRA
     FM240400 15005KT P6SM SCT035 BKN060 BKN110
     FM241200 VRB03KT P6SM SCT060 BKN110=

USA.gov is the U.S. government's official web portal to all federal, state and local government web resources and services.